sensor_id;sensor_type;location;lat;lon;timestamp;pressure;altitude;pressure_sealevel;temperature;humidity
83718;BME280;73701;52.234;21.288;2023-11-18T00:00:37;100608.41;;;0.65;93.46
83718;BME280;73701;52.234;21.288;2023-11-18T00:03:02;100611.91;;;0.75;93.84
83718;BME280;73701;52.234;21.288;2023-11-18T00:05:28;100624.75;;;0.84;92.98
83718;BME280;73701;52.234;21.288;2023-11-18T00:07:53;100620.47;;;0.82;93.22
83718;BME280;73701;52.234;21.288;2023-11-18T00:10:19;100616.19;;;0.82;93.15
83718;BME280;73701;52.234;21.288;2023-11-18T00:12:44;100620.47;;;0.82;93.28
83718;BME280;73701;52.234;21.288;2023-11-18T00:15:10;100624.69;;;0.77;92.86
83718;BME280;73701;52.234;21.288;2023-11-18T00:17:39;100640.91;;;0.77;93.52
83718;BME280;73701;52.234;21.288;2023-11-18T00:20:05;100625.56;;;0.76;93.07
83718;BME280;73701;52.234;21.288;2023-11-18T00:22:37;100587.09;;;0.57;92.93
83718;BME280;73701;52.234;21.288;2023-11-18T00:25:03;100630.66;;;0.76;92.97
83718;BME280;73701;52.234;21.288;2023-11-18T00:27:33;100605.81;;;0.53;93.63
83718;BME280;73701;52.234;21.288;2023-11-18T00:30:04;100636.66;;;0.82;93.55
83718;BME280;73701;52.234;21.288;2023-11-18T00:32:31;100646.06;;;0.83;93.06
83718;BME280;73701;52.234;21.288;2023-11-18T00:34:57;100651.16;;;0.85;93.31
83718;BME280;73701;52.234;21.288;2023-11-18T00:37:22;100645.16;;;0.77;93.40
83718;BME280;73701;52.234;21.288;2023-11-18T00:39:47;100650.31;;;0.80;93.46
83718;BME280;73701;52.234;21.288;2023-11-18T00:42:12;100652.88;;;0.81;93.48
83718;BME280;73701;52.234;21.288;2023-11-18T00:44:38;100631.50;;;0.72;92.72
83718;BME280;73701;52.234;21.288;2023-11-18T00:47:03;100614.34;;;0.58;92.71
83718;BME280;73701;52.234;21.288;2023-11-18T00:49:28;100652.88;;;0.80;93.11
83718;BME280;73701;52.234;21.288;2023-11-18T00:51:54;100594.63;;;0.40;93.69
83718;BME280;73701;52.234;21.288;2023-11-18T00:54:19;100661.31;;;0.73;93.81
83718;BME280;73701;52.234;21.288;2023-11-18T00:56:44;100658.81;;;0.79;93.42
83718;BME280;73701;52.234;21.288;2023-11-18T00:59:10;100637.44;;;0.67;93.43
83718;BME280;73701;52.234;21.288;2023-11-18T01:01:35;100668.16;;;0.77;93.30
83718;BME280;73701;52.234;21.288;2023-11-18T01:04:02;100641.66;;;0.65;93.37
83718;BME280;73701;52.234;21.288;2023-11-18T01:06:27;100669.06;;;0.80;93.19
83718;BME280;73701;52.234;21.288;2023-11-18T01:08:53;100670.72;;;0.77;93.66
83718;BME280;73701;52.234;21.288;2023-11-18T01:11:19;100657.88;;;0.66;93.94
83718;BME280;73701;52.234;21.288;2023-11-18T01:13:48;100669.88;;;0.78;93.24
83718;BME280;73701;52.234;21.288;2023-11-18T01:16:14;100664.75;;;0.78;93.64
83718;BME280;73701;52.234;21.288;2023-11-18T01:18:40;100669.88;;;0.76;93.52
83718;BME280;73701;52.234;21.288;2023-11-18T01:21:06;100675.06;;;0.87;92.93
83718;BME280;73701;52.234;21.288;2023-11-18T01:23:34;100666.50;;;0.82;93.11
83718;BME280;73701;52.234;21.288;2023-11-18T01:25:59;100538.09;;;-0.02;93.17
83718;BME280;73701;52.234;21.288;2023-11-18T01:28:25;100673.31;;;0.80;93.69
83718;BME280;73701;52.234;21.288;2023-11-18T01:30:51;100633.09;;;0.56;93.29
83718;BME280;73701;52.234;21.288;2023-11-18T01:33:16;100663.09;;;0.81;92.90
83718;BME280;73701;52.234;21.288;2023-11-18T01:35:42;100639.06;;;0.62;93.38
83718;BME280;73701;52.234;21.288;2023-11-18T01:38:08;100663.09;;;0.83;93.12
83718;BME280;73701;52.234;21.288;2023-11-18T01:40:34;100612.59;;;0.51;93.07
83718;BME280;73701;52.234;21.288;2023-11-18T01:42:59;100659.69;;;0.85;92.58
83718;BME280;73701;52.234;21.288;2023-11-18T01:45:24;100623.75;;;0.62;92.72
83718;BME280;73701;52.234;21.288;2023-11-18T01:47:52;100654.56;;;0.81;93.21
83718;BME280;73701;52.234;21.288;2023-11-18T01:50:17;100657.97;;;0.80;93.54
83718;BME280;73701;52.234;21.288;2023-11-18T01:52:44;100632.31;;;0.67;93.14
83718;BME280;73701;52.234;21.288;2023-11-18T01:55:10;100645.97;;;0.73;92.87
83718;BME280;73701;52.234;21.288;2023-11-18T01:57:38;100671.53;;;0.71;93.17
83718;BME280;73701;52.234;21.288;2023-11-18T02:00:05;100657.91;;;0.71;93.15
83718;BME280;73701;52.234;21.288;2023-11-18T02:02:32;100616.88;;;0.57;92.98
83718;BME280;73701;52.234;21.288;2023-11-18T02:04:59;100653.72;;;0.82;93.02
83718;BME280;73701;52.234;21.288;2023-11-18T02:07:27;100652.81;;;0.75;92.92
83718;BME280;73701;52.234;21.288;2023-11-18T02:09:54;100635.69;;;0.63;93.07
83718;BME280;73701;52.234;21.288;2023-11-18T02:12:31;100611.72;;;0.46;92.87
83718;BME280;73701;52.234;21.288;2023-11-18T02:15:00;100642.53;;;0.64;93.72
83718;BME280;73701;52.234;21.288;2023-11-18T02:17:29;100538.06;;;-0.05;93.62
83718;BME280;73701;52.234;21.288;2023-11-18T02:19:56;100665.59;;;0.74;93.49
83718;BME280;73701;52.234;21.288;2023-11-18T02:22:22;100661.34;;;0.76;92.93
83718;BME280;73701;52.234;21.288;2023-11-18T02:24:48;100662.22;;;0.82;92.94
83718;BME280;73701;52.234;21.288;2023-11-18T02:27:15;100635.69;;;0.65;92.94
83718;BME280;73701;52.234;21.288;2023-11-18T02:29:44;100657.94;;;0.77;92.50
83718;BME280;73701;52.234;21.288;2023-11-18T02:34:55;100673.38;;;0.92;92.50
83718;BME280;73701;52.234;21.288;2023-11-18T02:37:44;100677.56;;;0.81;93.12
83718;BME280;73701;52.234;21.288;2023-11-18T02:40:33;100686.91;;;0.76;93.42
83718;BME280;73701;52.234;21.288;2023-11-18T02:43:01;100676.69;;;0.74;93.25
83718;BME280;73701;52.234;21.288;2023-11-18T02:45:26;100693.78;;;0.80;92.76
83718;BME280;73701;52.234;21.288;2023-11-18T02:47:52;100665.47;;;0.60;93.03
83718;BME280;73701;52.234;21.288;2023-11-18T02:50:25;100680.94;;;0.75;93.57
83718;BME280;73701;52.234;21.288;2023-11-18T02:52:52;100690.34;;;0.78;93.08
83718;BME280;73701;52.234;21.288;2023-11-18T02:55:18;100686.94;;;0.77;92.76
83718;BME280;73701;52.234;21.288;2023-11-18T14:34:42;101308.09;;;0.65;90.76
83718;BME280;73701;52.234;21.288;2023-11-18T14:37:08;101305.50;;;0.63;91.46
83718;BME280;73701;52.234;21.288;2023-11-18T14:39:34;101312.28;;;0.61;91.42
83718;BME280;73701;52.234;21.288;2023-11-18T14:42:01;101310.50;;;0.56;91.34
83718;BME280;73701;52.234;21.288;2023-11-18T14:44:27;101308.00;;;0.59;90.90
83718;BME280;73701;52.234;21.288;2023-11-18T14:46:52;101313.19;;;0.63;90.58
83718;BME280;73701;52.234;21.288;2023-11-18T14:49:17;101311.47;;;0.64;90.81
83718;BME280;73701;52.234;21.288;2023-11-18T14:51:43;101320.03;;;0.64;90.43
83718;BME280;73701;52.234;21.288;2023-11-18T14:54:08;101154.53;;;-0.41;89.89
83718;BME280;73701;52.234;21.288;2023-11-18T14:56:34;101303.63;;;0.53;90.15
83718;BME280;73701;52.234;21.288;2023-11-18T14:59:00;101172.56;;;-0.31;90.37
83718;BME280;73701;52.234;21.288;2023-11-18T15:01:25;101305.41;;;0.57;90.36
83718;BME280;73701;52.234;21.288;2023-11-18T15:03:51;101313.94;;;0.58;90.75
83718;BME280;73701;52.234;21.288;2023-11-18T15:06:24;101281.81;;;0.26;90.70
83718;BME280;73701;52.234;21.288;2023-11-18T15:08:50;101315.41;;;0.46;91.47
83718;BME280;73701;52.234;21.288;2023-11-18T15:11:21;101305.72;;;0.30;90.14
83718;BME280;73701;52.234;21.288;2023-11-18T15:13:46;101313.50;;;0.34;91.46
83718;BME280;73701;52.234;21.288;2023-11-18T15:16:12;101320.31;;;0.36;91.16
83718;BME280;73701;52.234;21.288;2023-11-18T15:18:37;101324.72;;;0.43;91.33
83718;BME280;73701;52.234;21.288;2023-11-18T15:21:03;101301.47;;;0.29;91.65
83718;BME280;73701;52.234;21.288;2023-11-18T15:23:29;101310.25;;;0.43;91.36
83718;BME280;73701;52.234;21.288;2023-11-18T15:25:54;101311.38;;;0.13;90.91
83718;BME280;73701;52.234;21.288;2023-11-18T15:28:21;101318.72;;;0.41;90.83
83718;BME280;73701;52.234;21.288;2023-11-18T15:30:47;101320.31;;;0.36;91.77
83718;BME280;73701;52.234;21.288;2023-11-18T15:33:12;101322.03;;;0.37;91.25
83718;BME280;73701;52.234;21.288;2023-11-18T15:35:40;101334.84;;;0.38;90.73
83718;BME280;73701;52.234;21.288;2023-11-18T15:38:09;101325.31;;;0.29;91.85
83718;BME280;73701;52.234;21.288;2023-11-18T15:40:35;101318.22;;;0.14;91.54
83718;BME280;73701;52.234;21.288;2023-11-18T15:43:04;101312.53;;;0.29;91.28
83718;BME280;73701;52.234;21.288;2023-11-18T15:45:36;101344.28;;;0.41;90.80
83718;BME280;73701;52.234;21.288;2023-11-18T15:48:01;101297.00;;;0.19;91.12
83718;BME280;73701;52.234;21.288;2023-11-18T15:50:31;101328.19;;;0.45;90.75
83718;BME280;73701;52.234;21.288;2023-11-18T15:52:56;101288.41;;;0.15;90.46
83718;BME280;73701;52.234;21.288;2023-11-18T15:55:22;101313.44;;;0.31;90.26
83718;BME280;73701;52.234;21.288;2023-11-18T15:57:51;101271.88;;;-0.03;90.52
83718;BME280;73701;52.234;21.288;2023-11-18T16:00:21;101338.91;;;0.28;90.67
83718;BME280;73701;52.234;21.288;2023-11-18T16:02:51;101343.06;;;0.22;90.96
83718;BME280;73701;52.234;21.288;2023-11-18T16:05:18;101338.66;;;0.14;91.27
83718;BME280;73701;52.234;21.288;2023-11-18T16:07:46;101344.63;;;0.15;90.97
83718;BME280;73701;52.234;21.288;2023-11-18T16:10:13;101350.59;;;0.17;91.37
83718;BME280;73701;52.234;21.288;2023-11-18T16:12:50;101347.34;;;0.24;91.67
83718;BME280;73701;52.234;21.288;2023-11-18T16:15:17;101331.75;;;0.10;91.58
83718;BME280;73701;52.234;21.288;2023-11-18T16:17:45;101359.22;;;0.21;91.06
83718;BME280;73701;52.234;21.288;2023-11-18T16:20:11;101340.94;;;0.02;91.13
83718;BME280;73701;52.234;21.288;2023-11-18T16:22:40;101355.63;;;0.12;91.70
83718;BME280;73701;52.234;21.288;2023-11-18T16:25:06;101367.78;;;0.24;91.41
83718;BME280;73701;52.234;21.288;2023-11-18T16:27:32;101369.53;;;0.27;90.68
83718;BME280;73701;52.234;21.288;2023-11-18T16:29:57;101291.25;;;-0.12;90.79
83718;BME280;73701;52.234;21.288;2023-11-18T16:32:22;101355.78;;;0.19;91.06
83718;BME280;73701;52.234;21.288;2023-11-18T16:34:48;101337.72;;;0.11;90.92
83718;BME280;73701;52.234;21.288;2023-11-18T16:37:13;101370.53;;;0.33;90.64
83718;BME280;73701;52.234;21.288;2023-11-18T16:39:40;101369.78;;;0.38;90.18
83718;BME280;73701;52.234;21.288;2023-11-18T16:42:06;101363.63;;;0.28;89.74
83718;BME280;73701;52.234;21.288;2023-11-18T16:44:32;101372.91;;;0.24;90.57
83718;BME280;73701;52.234;21.288;2023-11-18T16:46:58;101381.50;;;0.28;91.02
83718;BME280;73701;52.234;21.288;2023-11-18T16:49:23;101375.56;;;0.29;90.49
83718;BME280;73701;52.234;21.288;2023-11-18T16:51:49;101372.06;;;0.25;91.15
83718;BME280;73701;52.234;21.288;2023-11-18T16:54:14;101366.03;;;0.20;91.05
83718;BME280;73701;52.234;21.288;2023-11-18T16:56:41;101377.09;;;0.21;90.98
83718;BME280;73701;52.234;21.288;2023-11-18T16:59:06;101379.56;;;0.16;91.70
83718;BME280;73701;52.234;21.288;2023-11-18T17:01:32;101381.41;;;0.23;91.17
83718;BME280;73701;52.234;21.288;2023-11-18T17:03:57;101386.63;;;0.29;90.69
83718;BME280;73701;52.234;21.288;2023-11-18T17:06:23;101336.56;;;-0.04;91.02
83718;BME280;73701;52.234;21.288;2023-11-18T17:08:49;101385.78;;;0.29;91.14
83718;BME280;73701;52.234;21.288;2023-11-18T17:11:14;101396.91;;;0.31;90.26
83718;BME280;73701;52.234;21.288;2023-11-18T17:13:40;101367.59;;;0.15;90.50
83718;BME280;73701;52.234;21.288;2023-11-18T17:16:09;101393.53;;;0.32;90.37
83718;BME280;73701;52.234;21.288;2023-11-18T17:18:35;101398.38;;;0.21;90.50
83718;BME280;73701;52.234;21.288;2023-11-18T17:21:00;101392.50;;;0.25;90.21
83718;BME280;73701;52.234;21.288;2023-11-18T17:23:26;101333.97;;;-0.05;90.45
83718;BME280;73701;52.234;21.288;2023-11-18T17:25:51;101372.00;;;0.22;90.13
83718;BME280;73701;52.234;21.288;2023-11-18T17:28:18;101385.84;;;0.32;90.22
83718;BME280;73701;52.234;21.288;2023-11-18T17:30:44;101386.56;;;0.25;91.09
83718;BME280;73701;52.234;21.288;2023-11-18T17:33:10;101378.63;;;0.12;91.20
83718;BME280;73701;52.234;21.288;2023-11-18T17:35:37;101389.06;;;0.23;90.81
83718;BME280;73701;52.234;21.288;2023-11-18T17:38:02;101383.03;;;0.20;91.63
83718;BME280;73701;52.234;21.288;2023-11-18T17:40:31;101378.78;;;0.19;91.08
83718;BME280;73701;52.234;21.288;2023-11-18T17:42:56;101358.09;;;0.08;91.37
83718;BME280;73701;52.234;21.288;2023-11-18T17:45:21;101362.34;;;0.07;91.29
83718;BME280;73701;52.234;21.288;2023-11-18T17:47:49;101376.88;;;0.11;91.08
83718;BME280;73701;52.234;21.288;2023-11-18T17:50:14;101380.22;;;0.07;92.09
83718;BME280;73701;52.234;21.288;2023-11-18T17:52:44;101335.41;;;-0.18;91.05
83718;BME280;73701;52.234;21.288;2023-11-18T17:55:10;101359.53;;;-0.05;91.01
83718;BME280;73701;52.234;21.288;2023-11-18T17:57:40;101369.84;;;0.01;91.26
83718;BME280;73701;52.234;21.288;2023-11-18T18:00:12;101351.63;;;-0.14;92.20
83718;BME280;73701;52.234;21.288;2023-11-18T18:02:39;101363.84;;;-0.03;91.78
83718;BME280;73701;52.234;21.288;2023-11-18T18:05:06;101361.31;;;-0.01;91.37
83718;BME280;73701;52.234;21.288;2023-11-18T18:07:32;101367.28;;;-0.01;91.59
83718;BME280;73701;52.234;21.288;2023-11-18T18:09:57;101360.63;;;0.06;91.39
83718;BME280;73701;52.234;21.288;2023-11-18T18:12:22;101363.84;;;-0.03;91.12
83718;BME280;73701;52.234;21.288;2023-11-18T18:14:48;101345.81;;;-0.09;91.44
83718;BME280;73701;52.234;21.288;2023-11-18T18:17:13;101313.13;;;-0.25;91.47
83718;BME280;73701;52.234;21.288;2023-11-18T18:19:39;100898.03;;;-2.72;91.52
83718;BME280;73701;52.234;21.288;2023-11-18T18:22:04;101348.59;;;0.02;91.71
83718;BME280;73701;52.234;21.288;2023-11-18T18:24:29;101350.34;;;0.03;90.82
83718;BME280;73701;52.234;21.288;2023-11-18T18:26:56;101328.56;;;-0.19;91.20
83718;BME280;73701;52.234;21.288;2023-11-18T18:29:22;101317.22;;;-0.32;91.56
83718;BME280;73701;52.234;21.288;2023-11-18T18:31:48;101322.34;;;-0.30;91.57
83718;BME280;73701;52.234;21.288;2023-11-18T18:34:13;101314.53;;;-0.38;92.04
83718;BME280;73701;52.234;21.288;2023-11-18T18:36:39;101346.50;;;-0.16;91.62
83718;BME280;73701;52.234;21.288;2023-11-18T18:39:04;101360.13;;;-0.17;92.32
83718;BME280;73701;52.234;21.288;2023-11-18T18:41:30;101350.00;;;-0.12;91.94
83718;BME280;73701;52.234;21.288;2023-11-18T18:43:55;101310.31;;;-0.36;91.68
83718;BME280;73701;52.234;21.288;2023-11-18T18:46:21;101361.53;;;-0.30;91.21
83718;BME280;73701;52.234;21.288;2023-11-18T18:48:46;101339.81;;;-0.11;91.79
83718;BME280;73701;52.234;21.288;2023-11-18T18:51:14;101340.66;;;-0.10;91.70
83718;BME280;73701;52.234;21.288;2023-11-18T18:53:39;101226.53;;;-0.94;91.46
83718;BME280;73701;52.234;21.288;2023-11-18T18:56:05;101306.31;;;-0.25;91.19
83718;BME280;73701;52.234;21.288;2023-11-18T18:58:31;101346.84;;;-0.01;91.61
83718;BME280;73701;52.234;21.288;2023-11-18T19:00:58;101297.88;;;-0.22;91.43
83718;BME280;73701;52.234;21.288;2023-11-18T19:03:24;101264.75;;;-0.57;91.75
83718;BME280;73701;52.234;21.288;2023-11-18T19:05:49;101338.75;;;-0.21;91.87
83718;BME280;73701;52.234;21.288;2023-11-18T19:08:15;101353.34;;;-0.15;91.39
83718;BME280;73701;52.234;21.288;2023-11-18T19:10:40;101367.06;;;-0.11;91.57
83718;BME280;73701;52.234;21.288;2023-11-18T19:13:06;101372.25;;;-0.07;90.94
83718;BME280;73701;52.234;21.288;2023-11-18T19:15:33;101361.31;;;-0.01;91.26
83718;BME280;73701;52.234;21.288;2023-11-18T19:18:00;101341.25;;;-0.24;90.65
83718;BME280;73701;52.234;21.288;2023-11-18T19:20:29;101368.78;;;-0.09;90.92
83718;BME280;73701;52.234;21.288;2023-11-18T19:22:54;101359.59;;;-0.02;91.13
83718;BME280;73701;52.234;21.288;2023-11-18T19:25:20;101364.78;;;0.03;91.48
83718;BME280;73701;52.234;21.288;2023-11-18T19:27:46;101367.16;;;-0.07;91.27
83718;BME280;73701;52.234;21.288;2023-11-18T19:30:12;101321.28;;;-0.40;91.02
83718;BME280;73701;52.234;21.288;2023-11-18T19:32:41;101382.31;;;-0.13;92.39
83718;BME280;73701;52.234;21.288;2023-11-18T19:35:08;101343.59;;;-0.31;91.73
83718;BME280;73701;52.234;21.288;2023-11-18T19:37:34;101343.69;;;-0.28;91.59
83718;BME280;73701;52.234;21.288;2023-11-18T19:39:59;101362.00;;;-0.08;91.37
83718;BME280;73701;52.234;21.288;2023-11-18T19:42:25;101365.41;;;-0.08;92.21
83718;BME280;73701;52.234;21.288;2023-11-18T19:44:51;101357.78;;;-0.06;92.04
83718;BME280;73701;52.234;21.288;2023-11-18T19:47:21;101333.53;;;-0.25;91.36
83718;BME280;73701;52.234;21.288;2023-11-18T19:49:46;101347.53;;;-0.08;91.91
83718;BME280;73701;52.234;21.288;2023-11-18T19:52:12;101351.75;;;-0.10;91.98
83718;BME280;73701;52.234;21.288;2023-11-18T19:54:37;101342.41;;;-0.09;91.69
83718;BME280;73701;52.234;21.288;2023-11-18T19:57:04;101346.69;;;-0.08;91.75
83718;BME280;73701;52.234;21.288;2023-11-18T19:59:29;101356.75;;;-0.14;91.62
83718;BME280;73701;52.234;21.288;2023-11-18T20:01:57;101343.44;;;-0.01;91.38
83718;BME280;73701;52.234;21.288;2023-11-18T20:04:26;101353.13;;;0.15;90.16
83718;BME280;73701;52.234;21.288;2023-11-18T20:06:52;101343.81;;;0.17;90.62
83718;BME280;73701;52.234;21.288;2023-11-18T20:09:17;101350.59;;;0.17;90.34
83718;BME280;73701;52.234;21.288;2023-11-18T20:11:53;101340.31;;;0.14;90.15
83718;BME280;73701;52.234;21.288;2023-11-18T20:14:20;101339.50;;;0.15;90.56
83718;BME280;73701;52.234;21.288;2023-11-18T20:16:49;101301.41;;;-0.15;90.01
83718;BME280;73701;52.234;21.288;2023-11-18T20:19:17;101350.47;;;0.11;91.08
83718;BME280;73701;52.234;21.288;2023-11-18T20:21:46;101348.56;;;0.01;90.37
83718;BME280;73701;52.234;21.288;2023-11-18T20:24:11;101340.13;;;0.03;91.33
83718;BME280;73701;52.234;21.288;2023-11-18T20:26:37;101314.97;;;-0.18;90.68
83718;BME280;73701;52.234;21.288;2023-11-18T20:29:03;101349.38;;;-0.02;91.26
83718;BME280;73701;52.234;21.288;2023-11-18T20:31:29;101342.66;;;0.02;90.95
83718;BME280;73701;52.234;21.288;2023-11-18T20:33:54;101206.47;;;-0.78;89.95
83718;BME280;73701;52.234;21.288;2023-11-18T20:36:19;101335.88;;;0.05;90.19
83718;BME280;73701;52.234;21.288;2023-11-18T20:38:44;101326.44;;;0.01;90.26
83718;BME280;73701;52.234;21.288;2023-11-18T20:41:11;101319.47;;;-0.06;90.48
83718;BME280;73701;52.234;21.288;2023-11-18T20:43:39;101309.91;;;-0.16;90.96
83718;BME280;73701;52.234;21.288;2023-11-18T20:46:05;101317.75;;;-0.07;91.35
83718;BME280;73701;52.234;21.288;2023-11-18T20:48:30;101297.03;;;-0.21;91.62
83718;BME280;73701;52.234;21.288;2023-11-18T20:50:56;101314.06;;;-0.20;91.99
83718;BME280;73701;52.234;21.288;2023-11-18T20:53:21;101284.06;;;-0.30;92.05
83718;BME280;73701;52.234;21.288;2023-11-18T20:55:47;101287.56;;;-0.27;91.41
83718;BME280;73701;52.234;21.288;2023-11-18T20:58:12;101291.00;;;-0.25;91.75
83718;BME280;73701;52.234;21.288;2023-11-18T21:00:37;101281.50;;;-0.30;91.86
83718;BME280;73701;52.234;21.288;2023-11-18T21:03:03;101279.00;;;-0.29;91.78
83718;BME280;73701;52.234;21.288;2023-11-18T21:05:28;101276.28;;;-0.37;92.00
83718;BME280;73701;52.234;21.288;2023-11-18T21:07:54;101281.38;;;-0.37;91.84
83718;BME280;73701;52.234;21.288;2023-11-18T21:10:20;101252.03;;;-0.56;91.61
83718;BME280;73701;52.234;21.288;2023-11-18T21:12:47;101273.72;;;-0.37;91.83
83718;BME280;73701;52.234;21.288;2023-11-18T21:15:13;101259.03;;;-0.48;91.74
83718;BME280;73701;52.234;21.288;2023-11-18T21:17:39;101265.19;;;-0.37;91.45
83718;BME280;73701;52.234;21.288;2023-11-18T21:20:05;101259.88;;;-0.48;91.59
83718;BME280;73701;52.234;21.288;2023-11-18T21:22:31;101252.94;;;-0.54;91.50
83718;BME280;73701;52.234;21.288;2023-11-18T21:24:56;101243.53;;;-0.56;91.53
83718;BME280;73701;52.234;21.288;2023-11-18T21:27:22;101258.88;;;-0.55;91.76
83718;BME280;73701;52.234;21.288;2023-11-18T21:29:48;101252.84;;;-0.58;91.66
83718;BME280;73701;52.234;21.288;2023-11-18T21:32:13;101108.91;;;-1.46;91.01
83718;BME280;73701;52.234;21.288;2023-11-18T21:34:38;101228.53;;;-0.80;91.42
83718;BME280;73701;52.234;21.288;2023-11-18T21:37:08;101243.53;;;-0.56;90.68
83718;BME280;73701;52.234;21.288;2023-11-18T21:39:36;101094.63;;;-1.39;89.54
83718;BME280;73701;52.234;21.288;2023-11-18T21:42:01;101265.88;;;-0.44;90.39
83718;BME280;73701;52.234;21.288;2023-11-18T21:44:28;101266.59;;;-0.52;90.90
83718;BME280;73701;52.234;21.288;2023-11-18T21:46:54;101263.19;;;-0.52;91.01
83718;BME280;73701;52.234;21.288;2023-11-18T21:49:19;101263.31;;;-0.46;91.33
83718;BME280;73701;52.234;21.288;2023-11-18T21:51:44;101262.41;;;-0.48;91.49
83718;BME280;73701;52.234;21.288;2023-11-18T21:54:11;101246.09;;;-0.55;91.01
83718;BME280;73701;52.234;21.288;2023-11-18T21:56:37;101248.63;;;-0.56;91.43
83718;BME280;73701;52.234;21.288;2023-11-18T21:59:02;101252.91;;;-0.55;92.00
83718;BME280;73701;52.234;21.288;2023-11-18T22:01:29;101210.19;;;-1.02;91.77
83718;BME280;73701;52.234;21.288;2023-11-18T22:03:55;101257.94;;;-0.58;91.83
83718;BME280;73701;52.234;21.288;2023-11-18T22:06:21;101254.50;;;-0.59;92.39
83718;BME280;73701;52.234;21.288;2023-11-18T22:08:48;101257.13;;;-0.56;93.04
83718;BME280;73701;52.234;21.288;2023-11-18T22:11:14;101249.44;;;-0.57;92.43
83718;BME280;73701;52.234;21.288;2023-11-18T22:13:44;101249.56;;;-0.53;92.81
83718;BME280;73701;52.234;21.288;2023-11-18T22:16:10;101239.38;;;-0.53;92.09
83718;BME280;73701;52.234;21.288;2023-11-18T22:18:35;101240.16;;;-0.55;91.32
83718;BME280;73701;52.234;21.288;2023-11-18T22:21:00;101257.25;;;-0.51;91.41
83718;BME280;73701;52.234;21.288;2023-11-18T22:23:26;101265.94;;;-0.43;91.23
83718;BME280;73701;52.234;21.288;2023-11-18T22:25:52;101276.00;;;-0.49;92.38
83718;BME280;73701;52.234;21.288;2023-11-18T22:28:17;101247.59;;;-0.64;93.47
83718;BME280;73701;52.234;21.288;2023-11-18T22:30:42;101299.13;;;-0.43;93.66
83718;BME280;73701;52.234;21.288;2023-11-18T22:33:10;101293.22;;;-0.40;93.33
83718;BME280;73701;52.234;21.288;2023-11-18T22:35:35;101257.09;;;-0.57;93.17
83718;BME280;73701;52.234;21.288;2023-11-18T22:38:01;101274.56;;;-0.38;92.57
83718;BME280;73701;52.234;21.288;2023-11-18T22:40:26;101290.81;;;-0.34;92.45
83718;BME280;73701;52.234;21.288;2023-11-18T22:42:52;101304.50;;;-0.30;92.59
83718;BME280;73701;52.234;21.288;2023-11-18T22:45:18;101290.56;;;-0.45;92.89
83718;BME280;73701;52.234;21.288;2023-11-18T22:47:45;101289.81;;;-0.41;93.20
83718;BME280;73701;52.234;21.288;2023-11-18T22:50:11;101305.31;;;-0.31;92.87
83718;BME280;73701;52.234;21.288;2023-11-18T22:52:40;101320.69;;;-0.30;92.33
83718;BME280;73701;52.234;21.288;2023-11-18T22:55:12;101302.69;;;-0.35;92.38
83718;BME280;73701;52.234;21.288;2023-11-18T22:57:37;101287.97;;;-0.46;92.39
83718;BME280;73701;52.234;21.288;2023-11-18T23:00:04;101098.22;;;-1.67;93.08
83718;BME280;73701;52.234;21.288;2023-11-18T23:02:31;101292.50;;;-0.33;92.89
83718;BME280;73701;52.234;21.288;2023-11-18T23:04:57;101285.69;;;-0.36;92.62
83718;BME280;73701;52.234;21.288;2023-11-18T23:07:27;101278.06;;;-0.32;92.26
83718;BME280;73701;52.234;21.288;2023-11-18T23:09:53;101259.03;;;-0.48;91.78
83718;BME280;73701;52.234;21.288;2023-11-18T23:12:20;101286.69;;;-0.27;92.43
83718;BME280;73701;52.234;21.288;2023-11-18T23:14:45;101285.84;;;-0.26;92.12
83718;BME280;73701;52.234;21.288;2023-11-18T23:17:11;101257.69;;;-0.31;92.10
83718;BME280;73701;52.234;21.288;2023-11-18T23:19:37;101247.50;;;-0.29;91.98
83718;BME280;73701;52.234;21.288;2023-11-18T23:22:03;101106.25;;;-1.14;92.12
83718;BME280;73701;52.234;21.288;2023-11-18T23:24:32;101242.34;;;-0.32;92.71
83718;BME280;73701;52.234;21.288;2023-11-18T23:26:58;101165.66;;;-0.78;93.05
83718;BME280;73701;52.234;21.288;2023-11-18T23:29:23;101105.75;;;-1.35;92.50
83718;BME280;73701;52.234;21.288;2023-11-18T23:31:48;101208.19;;;-0.38;93.01
83718;BME280;73701;52.234;21.288;2023-11-18T23:34:14;101193.81;;;-0.34;93.16
83718;BME280;73701;52.234;21.288;2023-11-18T23:36:39;101143.00;;;-0.63;93.19
83718;BME280;73701;52.234;21.288;2023-11-18T23:39:04;101183.44;;;-0.40;92.73
83718;BME280;73701;52.234;21.288;2023-11-18T23:41:31;101168.88;;;-0.46;92.72
83718;BME280;73701;52.234;21.288;2023-11-18T23:43:56;101186.03;;;-0.39;92.78
83718;BME280;73701;52.234;21.288;2023-11-18T23:46:23;101191.22;;;-0.36;92.78
83718;BME280;73701;52.234;21.288;2023-11-18T23:48:48;101183.63;;;-0.32;92.58
83718;BME280;73701;52.234;21.288;2023-11-18T23:51:16;101185.31;;;-0.31;93.06
83718;BME280;73701;52.234;21.288;2023-11-18T23:53:42;101194.78;;;-0.27;92.49
83718;BME280;73701;52.234;21.288;2023-11-18T23:56:07;101191.28;;;-0.32;92.44
83718;BME280;73701;52.234;21.288;2023-11-18T23:58:33;101188.69;;;-0.34;92.48
